Duluth, Minnesota
Current Conditions -  °F | °C
As of 7:25 PM on Tuesday 21 Oct 2014 (Local Time) from KDLH Reporting Station
Few Clouds Few Clouds  
Wind Chill:   Ceiling: Unl
Heat Index:   Visibility: 10mi
Dew Point:   Wind: 14mph
Humidity: 86%   Direction: 90°E
Pressure: 30.17"   Gusts: NA
Location:  46.79°N, 92.09°W
Report Text: KDLH 220025Z 09012KT 10SM FEW007 04/02 A3017 RMK AO2 T00440022
Loading
Personal Weather Stations






























Interactive Weather Map
Tropical Storm Tracking
New forecast layout! Learn more

10-Day Weather Forecast

Advertisements
Track Severe Weather on mobile